Time;durP1;ratioP1;P1;durP2;ratioP2;P2;SDS_P1;SDS_P2;PMS_P1;PMS_P2;Temp;Humidity;BMP_temperature;BMP_pressure;BME280_temperature;BME280_humidity;BME280_pressure;Samples;Min_cycle;Max_cycle;Signal;HPM_P1;HPM_P2
2021/01/12 00:00:40;;;;;;;19.03;12.70;;;6.30;99.90;;;;;;5034773;28;20180;-67
2021/01/12 00:03:06;;;;;;;18.97;14.27;;;6.40;99.90;;;;;;5032556;28;20179;-68
2021/01/12 00:05:32;;;;;;;22.20;15.33;;;6.50;99.90;;;;;;5033856;28;20250;-68
2021/01/12 00:07:57;;;;;;;19.80;14.10;;;6.40;99.90;;;;;;5029418;28;20219;-68
2021/01/12 00:10:23;;;;;;;18.60;14.47;;;6.40;99.90;;;;;;5034125;28;20175;-68
2021/01/12 00:12:51;;;;;;;25.90;14.10;;;6.30;99.90;;;;;;5034099;28;20174;-68
2021/01/12 00:15:17;;;;;;;24.10;16.13;;;6.30;99.90;;;;;;5033624;28;20492;-68
2021/01/12 00:17:43;;;;;;;19.97;14.33;;;6.30;99.90;;;;;;5034018;28;20824;-67
2021/01/12 00:20:11;;;;;;;20.13;14.77;;;6.40;99.90;;;;;;5033710;28;20569;-67
2021/01/12 00:22:37;;;;;;;22.53;15.23;;;6.40;99.90;;;;;;5033630;28;20175;-67
2021/01/12 00:25:05;;;;;;;25.00;15.77;;;6.40;99.90;;;;;;5026002;28;20471;-67
2021/01/12 00:27:31;;;;;;;22.50;12.80;;;6.40;99.90;;;;;;5014329;28;20428;-67
2021/01/12 00:29:56;;;;;;;22.13;14.20;;;6.40;99.90;;;;;;5014199;28;20790;-71
2021/01/12 00:32:25;;;;;;;18.17;13.77;;;6.40;99.90;;;;;;5013928;28;20282;-73
2021/01/12 00:34:51;;;;;;;18.90;14.33;;;6.40;99.90;;;;;;5013850;28;20228;-70
2021/01/12 00:37:19;;;;;;;19.30;14.40;;;6.40;99.90;;;;;;5014576;28;20952;-70
2021/01/12 00:39:44;;;;;;;22.52;14.80;;;6.40;99.90;;;;;;5014465;28;20503;-70
2021/01/12 00:42:10;;;;;;;22.63;16.00;;;6.50;99.90;;;;;;5014651;28;20207;-70
2021/01/12 00:44:35;;;;;;;25.00;15.70;;;6.30;99.90;;;;;;5014906;28;20295;-70
2021/01/12 00:47:01;;;;;;;21.50;16.27;;;6.40;99.90;;;;;;5013070;28;20194;-70
2021/01/12 00:49:27;;;;;;;28.07;15.50;;;6.30;99.90;;;;;;5012697;28;20174;-70
2021/01/12 00:51:53;;;;;;;22.63;15.67;;;6.50;99.90;;;;;;5012920;28;20176;-70
2021/01/12 00:54:21;;;;;;;31.43;14.83;;;6.40;99.90;;;;;;5012609;28;20184;-70
2021/01/12 00:56:48;;;;;;;23.33;16.70;;;6.50;99.90;;;;;;5012577;28;20775;-70
2021/01/12 00:59:13;;;;;;;20.73;13.40;;;6.40;99.90;;;;;;5012538;28;20609;-70
2021/01/12 01:01:39;;;;;;;19.80;14.30;;;6.50;99.90;;;;;;5013864;28;20427;-70
2021/01/12 01:04:06;;;;;;;19.20;14.13;;;6.50;99.90;;;;;;5014492;28;20516;-71
2021/01/12 01:06:32;;;;;;;24.23;13.00;;;6.50;99.90;;;;;;5014335;28;20528;-71
2021/01/12 01:08:58;;;;;;;21.77;15.37;;;6.60;99.90;;;;;;5014473;28;20456;-71
2021/01/12 01:11:23;;;;;;;20.47;13.40;;;6.50;99.90;;;;;;5014173;28;20184;-71
2021/01/12 01:13:49;;;;;;;21.43;14.23;;;6.40;99.90;;;;;;5014273;28;20646;-71
2021/01/12 01:16:15;;;;;;;22.20;14.43;;;6.50;99.90;;;;;;5014256;28;20207;-71
2021/01/12 01:18:40;;;;;;;19.53;13.87;;;6.50;99.90;;;;;;5014322;28;20197;-71
2021/01/12 01:21:06;;;;;;;18.10;13.40;;;6.70;99.90;;;;;;5014190;28;20687;-71
2021/01/12 01:23:32;;;;;;;18.60;13.60;;;6.80;99.90;;;;;;5013920;28;20206;-71
2021/01/12 01:25:57;;;;;;;14.27;11.00;;;6.80;99.90;;;;;;5014116;28;20244;-69
2021/01/12 01:28:24;;;;;;;18.57;12.43;;;6.60;99.90;;;;;;5014044;28;20532;-70
2021/01/12 01:30:52;;;;;;;17.70;10.80;;;6.50;99.90;;;;;;5014096;28;20227;-69
2021/01/12 01:33:18;;;;;;;18.80;12.33;;;6.60;99.90;;;;;;5014271;28;20838;-69
2021/01/12 01:35:44;;;;;;;16.77;11.47;;;6.60;99.90;;;;;;5014078;28;20461;-70
2021/01/12 01:38:09;;;;;;;14.73;12.20;;;6.50;99.90;;;;;;5014008;28;20643;-70
2021/01/12 01:40:35;;;;;;;15.63;12.60;;;6.50;99.90;;;;;;5013109;28;20179;-70
2021/01/12 01:43:00;;;;;;;17.53;12.10;;;6.50;99.90;;;;;;5016103;28;20198;-70
2021/01/12 01:45:26;;;;;;;19.50;12.90;;;6.40;99.90;;;;;;5015895;28;20220;-70
2021/01/12 01:47:52;;;;;;;16.00;12.70;;;6.60;99.90;;;;;;5012936;28;20266;-70
2021/01/12 01:50:21;;;;;;;18.43;10.50;;;6.60;99.90;;;;;;5013826;28;20178;-70
2021/01/12 01:52:54;;;;;;;18.73;12.40;;;6.60;99.90;;;;;;5013756;28;20446;-71
2021/01/12 01:55:21;;;;;;;16.83;12.57;;;6.70;99.90;;;;;;5012398;28;20434;-71
2021/01/12 01:57:46;;;;;;;16.03;12.20;;;6.50;99.90;;;;;;5013702;28;20422;-71
2021/01/12 02:00:16;;;;;;;14.67;11.07;;;6.70;99.90;;;;;;5013584;28;20426;-69
2021/01/12 02:03:06;;;;;;;16.90;11.90;;;6.70;99.90;;;;;;5013580;28;20187;-69
2021/01/12 02:05:34;;;;;;;13.63;11.13;;;6.70;99.90;;;;;;5013664;28;20561;-69
2021/01/12 02:08:08;;;;;;;13.80;10.53;;;6.70;99.90;;;;;;5013365;28;20974;-69
2021/01/12 02:10:42;;;;;;;14.47;11.60;;;6.50;99.90;;;;;;5013587;28;20944;-69
2021/01/12 02:13:17;;;;;;;13.23;9.70;;;6.70;99.90;;;;;;5013396;28;20422;-69
2021/01/12 02:15:44;;;;;;;14.10;9.93;;;6.50;99.90;;;;;;5013615;28;20457;-69
2021/01/12 02:18:11;;;;;;;12.73;9.10;;;6.60;99.90;;;;;;5013009;28;20789;-69
2021/01/12 02:20:38;;;;;;;12.10;8.30;;;6.70;99.90;;;;;;5013486;28;20430;-69
2021/01/12 02:23:27;;;;;;;9.67;7.80;;;6.70;99.90;;;;;;5013410;28;20427;-69
2021/01/12 06:32:37;;;;;;;2.90;2.17;;;7.90;99.90;;;;;;5082204;23;20540;-68
2021/01/12 06:35:08;;;;;;;3.50;2.50;;;7.80;99.90;;;;;;5032969;28;20434;-68
2021/01/12 06:37:41;;;;;;;2.23;1.93;;;7.80;99.90;;;;;;5032987;28;20426;-68
2021/01/12 06:40:11;;;;;;;2.50;2.30;;;8.00;99.90;;;;;;5033044;28;20517;-68
2021/01/12 06:42:38;;;;;;;3.10;2.83;;;8.00;99.90;;;;;;5033077;28;20766;-68
2021/01/12 06:45:06;;;;;;;3.00;2.70;;;8.10;99.90;;;;;;5032887;28;20465;-68
2021/01/12 06:47:32;;;;;;;2.73;2.30;;;8.10;99.90;;;;;;5033015;28;20568;-68
2021/01/12 06:50:05;;;;;;;3.97;2.50;;;8.10;99.90;;;;;;5032857;28;20529;-68
2021/01/12 06:52:36;;;;;;;2.60;2.10;;;8.00;99.90;;;;;;5032945;28;20438;-68
2021/01/12 06:55:06;;;;;;;2.90;2.60;;;8.10;99.90;;;;;;5032806;28;20458;-68
2021/01/12 07:10:28;;;;;;;2.70;2.30;;;8.10;99.90;;;;;;6075074;22;20544;-67
2021/01/12 07:12:53;;;;;;;2.77;2.40;;;8.10;99.90;;;;;;5103809;22;20487;-68
2021/01/12 07:15:21;;;;;;;3.17;2.40;;;8.10;99.90;;;;;;5076357;28;20178;-68
2021/01/12 07:17:49;;;;;;;3.30;2.30;;;8.30;99.90;;;;;;5076244;28;20276;-68
2021/01/12 07:20:19;;;;;;;2.30;2.10;;;8.40;99.90;;;;;;5076157;28;20786;-68
2021/01/12 07:23:03;;;;;;;2.50;2.27;;;8.30;99.90;;;;;;5076226;28;20769;-68
2021/01/12 07:25:29;;;;;;;1.97;1.77;;;8.30;99.90;;;;;;5076162;28;20471;-68
2021/01/12 07:28:17;;;;;;;6.67;2.10;;;8.40;99.90;;;;;;5076079;28;20424;-68
2021/01/12 07:30:44;;;;;;;1.80;1.60;;;8.30;99.90;;;;;;5076122;28;20428;-68
2021/01/12 07:33:21;;;;;;;3.50;1.80;;;8.30;99.90;;;;;;5075976;28;20424;-68
2021/01/12 07:35:52;;;;;;;6.17;2.17;;;8.40;99.90;;;;;;5075955;28;20427;-68
2021/01/12 07:38:29;;;;;;;1.57;1.47;;;8.30;99.90;;;;;;5075956;28;20950;-68
2021/01/12 07:40:59;;;;;;;2.83;2.53;;;8.20;99.90;;;;;;5075874;28;20448;-68
2021/01/12 07:43:25;;;;;;;2.40;2.20;;;8.20;99.90;;;;;;5076031;28;20831;-68
2021/01/12 07:45:53;;;;;;;2.03;1.83;;;8.20;99.90;;;;;;5075753;28;20472;-68
2021/01/12 07:48:19;;;;;;;2.63;2.13;;;8.30;99.90;;;;;;5067964;28;20454;-68
2021/01/12 07:50:47;;;;;;;2.40;2.20;;;8.50;99.90;;;;;;5063463;28;20439;-68
2021/01/12 07:53:13;;;;;;;1.60;1.50;;;8.60;99.90;;;;;;5065909;28;20432;-68
2021/01/12 07:55:43;;;;;;;2.50;1.90;;;8.70;99.90;;;;;;5057640;28;20424;-67
2021/01/12 08:01:32;;;;;;;2.70;2.10;;;8.50;99.90;;;;;;5075447;28;20411;-68
2021/01/12 08:03:58;;;;;;;1.80;1.70;;;8.50;99.90;;;;;;5075535;28;20429;-69
2021/01/12 08:09:46;;;;;;;1.67;1.47;;;8.30;99.90;;;;;;5075453;28;20411;-67
2021/01/12 08:12:13;;;;;;;2.60;2.20;;;8.40;99.90;;;;;;5074996;28;20539;-67
2021/01/12 08:14:39;;;;;;;2.30;2.10;;;8.40;99.90;;;;;;5075535;28;20186;-67
2021/01/12 08:17:05;;;;;;;2.40;2.20;;;8.40;99.90;;;;;;5074793;28;20467;-66
2021/01/12 08:19:31;;;;;;;2.47;2.13;;;8.40;99.90;;;;;;5075536;28;20197;-68
2021/01/12 08:21:57;;;;;;;2.30;1.70;;;8.40;99.90;;;;;;5075500;28;20923;-68
2021/01/12 08:24:26;;;;;;;2.87;2.47;;;8.40;99.90;;;;;;5075290;28;20174;-67
2021/01/12 08:30:14;;;;;;;2.00;1.77;;;8.50;99.90;;;;;;5075090;28;20424;-68
2021/01/12 08:32:44;;;;;;;6.40;2.40;;;8.50;99.90;;;;;;5074967;28;20933;-68
2021/01/12 08:35:13;;;;;;;2.63;2.43;;;8.50;99.90;;;;;;5075226;28;20416;-68
2021/01/12 08:37:40;;;;;;;2.80;2.43;;;8.50;99.90;;;;;;5075324;28;20891;-67
2021/01/12 08:40:08;;;;;;;2.80;2.60;;;8.60;99.90;;;;;;5075149;28;20456;-68
2021/01/12 08:46:00;;;;;;;3.17;2.87;;;8.60;99.90;;;;;;5074726;28;20552;-68
2021/01/12 08:48:26;;;;;;;4.30;3.10;;;8.60;99.90;;;;;;5074913;28;20503;-68
2021/01/12 08:50:51;;;;;;;5.87;3.10;;;8.60;99.90;;;;;;5074709;28;20532;-68
2021/01/12 08:53:18;;;;;;;5.50;3.80;;;8.50;99.90;;;;;;5074849;28;20194;-68
2021/01/12 08:55:44;;;;;;;6.23;4.13;;;8.50;99.90;;;;;;5074832;28;20496;-68
2021/01/12 08:58:11;;;;;;;4.53;4.10;;;8.50;99.90;;;;;;5074788;28;20417;-67
2021/01/12 09:00:38;;;;;;;7.73;4.47;;;8.40;99.90;;;;;;5074755;28;20424;-68
2021/01/12 09:03:05;;;;;;;4.73;4.17;;;8.50;99.90;;;;;;5074717;28;20423;-68
2021/01/12 09:05:38;;;;;;;6.27;4.70;;;8.50;99.90;;;;;;5074591;28;20535;-68
2021/01/12 09:08:05;;;;;;;4.67;4.20;;;8.50;99.90;;;;;;5074631;28;20431;-68
2021/01/12 09:10:32;;;;;;;7.67;5.70;;;8.60;99.90;;;;;;5074536;28;20503;-68
2021/01/12 09:12:59;;;;;;;6.40;4.60;;;8.60;99.90;;;;;;5074067;28;20473;-67
2021/01/12 09:15:32;;;;;;;6.97;5.90;;;8.60;99.90;;;;;;5074453;28;20432;-68
2021/01/12 09:18:21;;;;;;;7.90;5.77;;;8.50;99.90;;;;;;5074454;28;20413;-67
2021/01/12 09:20:54;;;;;;;6.07;5.47;;;8.60;99.90;;;;;;5074117;28;20494;-68
2021/01/12 09:23:20;;;;;;;6.80;6.10;;;8.50;99.90;;;;;;5074298;28;20429;-69
2021/01/12 09:25:51;;;;;;;6.27;5.63;;;8.50;99.90;;;;;;5074186;28;20475;-68
2021/01/12 09:28:19;;;;;;;6.50;5.87;;;8.60;99.90;;;;;;5073345;28;20416;-68
2021/01/12 09:30:46;;;;;;;6.80;5.47;;;8.60;99.90;;;;;;5074153;28;20503;-70
2021/01/12 09:33:24;;;;;;;6.00;5.00;;;8.60;99.90;;;;;;5073810;28;20446;-68
2021/01/12 09:39:12;;;;;;;7.80;5.87;;;8.70;99.90;;;;;;5074045;28;20408;-69
2021/01/12 09:41:39;;;;;;;5.90;4.83;;;8.70;99.90;;;;;;5074103;28;20409;-69
2021/01/12 09:44:05;;;;;;;7.20;6.40;;;8.70;99.90;;;;;;5074034;28;20178;-69
2021/01/12 09:46:31;;;;;;;6.20;4.97;;;8.80;99.90;;;;;;5073975;28;21024;-69
2021/01/12 09:48:56;;;;;;;4.80;4.40;;;8.80;99.90;;;;;;5073943;28;20946;-69
2021/01/12 09:51:24;;;;;;;6.33;4.60;;;8.80;99.90;;;;;;5074010;28;20175;-69
2021/01/12 09:53:49;;;;;;;9.53;3.57;;;8.80;99.90;;;;;;5073955;28;20224;-69
2021/01/12 09:56:16;;;;;;;3.07;2.30;;;8.90;99.90;;;;;;5073551;28;20836;-69
2021/01/12 09:58:43;;;;;;;3.40;1.73;;;8.90;99.90;;;;;;5073931;28;20178;-69
2021/01/12 10:01:08;;;;;;;2.30;1.57;;;8.90;99.90;;;;;;5073514;28;20527;-69
2021/01/12 10:03:34;;;;;;;1.50;1.40;;;8.80;99.90;;;;;;5073579;28;20508;-69
2021/01/12 10:06:00;;;;;;;2.13;1.93;;;8.80;99.90;;;;;;5073687;28;20212;-69
2021/01/12 10:08:25;;;;;;;3.10;1.97;;;8.80;99.90;;;;;;5073774;28;20181;-69
2021/01/12 10:17:48;;;;;;;2.80;2.43;;;8.80;99.90;;;;;;5072412;28;20930;-69
2021/01/12 10:23:35;;;;;;;2.60;1.90;;;8.80;99.90;;;;;;5073387;28;20166;-68
2021/01/12 10:26:00;;;;;;;2.90;1.97;;;8.80;99.90;;;;;;5073438;28;20820;-69
2021/01/12 10:31:49;;;;;;;2.80;2.27;;;8.80;99.90;;;;;;5073279;28;20216;-69
2021/01/12 10:34:15;;;;;;;2.70;2.50;;;8.80;99.90;;;;;;5073194;28;20428;-68
2021/01/12 10:36:41;;;;;;;4.37;2.30;;;8.80;99.90;;;;;;5073477;28;20566;-68
2021/01/12 10:39:06;;;;;;;2.73;2.40;;;8.80;99.90;;;;;;5073537;28;20907;-69
2021/01/12 10:44:53;;;;;;;4.20;3.13;;;8.80;99.90;;;;;;5077116;28;20285;-69
2021/01/12 10:47:19;;;;;;;4.43;3.57;;;8.90;99.90;;;;;;5077403;28;20974;-69
2021/01/12 10:49:44;;;;;;;3.73;3.33;;;8.80;99.90;;;;;;5076090;28;20198;-69
2021/01/12 10:55:32;;;;;;;4.93;3.57;;;8.90;99.90;;;;;;5076912;28;20530;-69
2021/01/12 10:57:57;;;;;;;6.00;3.47;;;8.90;99.90;;;;;;5077191;28;20413;-69
2021/01/12 11:00:23;;;;;;;3.80;3.43;;;8.80;99.90;;;;;;5077165;28;20170;-69
2021/01/12 11:02:48;;;;;;;6.40;3.60;;;8.90;99.90;;;;;;5077005;28;20174;-69
2021/01/12 11:05:14;;;;;;;2.97;2.70;;;8.90;99.90;;;;;;5076905;28;20244;-69
2021/01/12 11:07:40;;;;;;;4.53;3.77;;;8.90;99.90;;;;;;5077473;28;20190;-69
2021/01/12 11:10:08;;;;;;;6.83;3.90;;;8.90;99.90;;;;;;5076915;28;20201;-69
2021/01/12 11:12:34;;;;;;;5.07;3.73;;;8.80;99.90;;;;;;5076882;28;20416;-69
2021/01/12 11:14:59;;;;;;;8.60;5.00;;;8.80;99.90;;;;;;5076384;28;20836;-69
2021/01/12 11:17:25;;;;;;;6.40;3.77;;;8.80;99.90;;;;;;5076817;28;20181;-69
2021/01/12 11:19:51;;;;;;;4.57;4.07;;;8.70;99.90;;;;;;5076942;28;20627;-69
2021/01/12 11:22:26;;;;;;;6.87;4.23;;;8.70;99.90;;;;;;5076295;28;20576;-68
2021/01/12 11:24:55;;;;;;;4.37;3.50;;;8.70;99.90;;;;;;5076880;28;20210;-68
2021/01/12 11:27:21;;;;;;;3.30;3.00;;;8.60;99.90;;;;;;5076599;28;20507;-68
2021/01/12 11:33:10;;;;;;;3.40;3.10;;;8.80;99.90;;;;;;5076340;28;20217;-68
2021/01/12 11:35:35;;;;;;;3.80;3.13;;;8.80;99.90;;;;;;5076945;28;20436;-68
2021/01/12 11:38:01;;;;;;;2.30;2.10;;;8.80;99.90;;;;;;5076100;28;21026;-68
2021/01/12 11:40:27;;;;;;;3.70;2.50;;;8.80;99.90;;;;;;5076323;28;20227;-68
2021/01/12 11:42:52;;;;;;;3.27;2.60;;;8.80;99.90;;;;;;5076013;28;20177;-68
2021/01/12 11:45:18;;;;;;;3.23;2.23;;;8.70;99.90;;;;;;5076006;28;20214;-68
2021/01/12 11:47:43;;;;;;;2.70;1.83;;;8.70;99.90;;;;;;5076284;28;20166;-68
2021/01/12 11:50:09;;;;;;;2.40;2.20;;;8.70;99.90;;;;;;5076236;28;20294;-68
2021/01/12 11:52:36;;;;;;;2.73;2.50;;;8.70;99.90;;;;;;5074827;28;20515;-68
2021/01/12 11:55:04;;;;;;;4.40;2.77;;;8.70;99.90;;;;;;5076014;28;20425;-68
2021/01/12 11:57:30;;;;;;;3.67;3.10;;;8.60;99.90;;;;;;5076113;28;20463;-69
2021/01/12 11:59:55;;;;;;;3.67;3.37;;;8.60;99.90;;;;;;5075787;28;20429;-68
2021/01/12 12:02:21;;;;;;;3.07;2.77;;;8.60;99.90;;;;;;5075891;28;20514;-68
2021/01/12 12:04:46;;;;;;;3.97;3.63;;;8.60;99.90;;;;;;5075620;28;20178;-68
2021/01/12 12:07:12;;;;;;;3.60;2.83;;;8.60;99.90;;;;;;5075817;28;20227;-68
2021/01/12 12:13:00;;;;;;;2.80;2.13;;;8.50;99.90;;;;;;5075500;28;20166;-68
2021/01/12 12:15:25;;;;;;;2.20;2.00;;;8.60;99.90;;;;;;5075712;28;20421;-67
2021/01/12 12:17:51;;;;;;;2.40;1.73;;;8.60;99.90;;;;;;5075704;28;20185;-68
2021/01/12 12:23:38;;;;;;;2.13;1.70;;;8.60;99.90;;;;;;5075290;28;20162;-67
2021/01/12 12:26:11;;;;;;;2.40;1.30;;;8.50;99.90;;;;;;5075353;28;20464;-68
2021/01/12 12:28:37;;;;;;;1.70;1.40;;;8.60;99.90;;;;;;5075384;28;20179;-68
2021/01/12 12:34:24;;;;;;;1.10;0.90;;;8.50;99.90;;;;;;5075178;28;20790;-68
2021/01/12 12:36:51;;;;;;;1.37;1.17;;;8.50;99.90;;;;;;5075192;28;20413;-68
2021/01/12 12:42:38;;;;;;;3.07;2.00;;;8.20;99.90;;;;;;5074971;28;20413;-68
2021/01/12 12:45:05;;;;;;;1.60;1.30;;;8.20;99.90;;;;;;5074809;28;20460;-68
2021/01/12 12:47:31;;;;;;;2.37;1.40;;;8.20;99.90;;;;;;5074773;28;20228;-68
2021/01/12 12:49:56;;;;;;;1.60;1.17;;;8.20;99.90;;;;;;5075137;28;20417;-68
2021/01/12 12:52:22;;;;;;;1.77;1.10;;;8.20;99.90;;;;;;5075073;28;20174;-67
2021/01/12 12:54:47;;;;;;;2.27;0.97;;;8.20;99.90;;;;;;5075059;28;20289;-68
2021/01/12 12:57:13;;;;;;;4.40;1.30;;;8.20;99.90;;;;;;5074646;28;20676;-68
2021/01/12 12:59:38;;;;;;;2.80;1.67;;;8.10;99.90;;;;;;5074898;28;20178;-68
2021/01/12 13:02:04;;;;;;;2.60;1.70;;;8.10;99.90;;;;;;5074601;28;20224;-68
2021/01/12 13:07:52;;;;;;;5.03;2.60;;;8.10;99.90;;;;;;5074385;28;20177;-68
2021/01/12 13:10:19;;;;;;;2.50;2.30;;;8.10;99.90;;;;;;5074658;28;20876;-68
2021/01/12 13:12:46;;;;;;;2.37;2.17;;;8.10;99.90;;;;;;5074623;28;20932;-68
2021/01/12 13:15:13;;;;;;;10.43;4.43;;;8.10;99.90;;;;;;5074109;28;20922;-68
2021/01/12 13:17:43;;;;;;;2.03;1.80;;;8.10;99.90;;;;;;5074120;28;20996;-68
2021/01/12 13:20:09;;;;;;;1.67;1.57;;;8.10;99.90;;;;;;5074803;28;20424;-68
2021/01/12 13:22:36;;;;;;;1.70;1.60;;;8.10;99.90;;;;;;5074951;28;20512;-68
2021/01/12 13:25:03;;;;;;;4.70;1.77;;;8.00;99.90;;;;;;5074229;28;20510;-68
2021/01/12 13:27:30;;;;;;;2.07;1.20;;;8.10;99.90;;;;;;5073849;28;20489;-68
2021/01/12 13:29:56;;;;;;;4.27;1.40;;;8.10;99.90;;;;;;5073755;28;20431;-68
2021/01/12 13:32:21;;;;;;;3.50;2.13;;;8.10;99.90;;;;;;5074070;28;20515;-68
2021/01/12 13:34:48;;;;;;;1.70;0.97;;;8.00;99.90;;;;;;5072648;28;20223;-68
2021/01/12 13:37:13;;;;;;;3.70;1.60;;;8.10;99.90;;;;;;5073685;28;20250;-68
2021/01/12 13:43:01;;;;;;;3.43;1.00;;;8.10;99.90;;;;;;5073676;28;20208;-68
2021/01/12 13:48:48;;;;;;;1.30;1.00;;;7.90;99.90;;;;;;5073979;28;20181;-68
2021/01/12 13:51:14;;;;;;;1.27;0.80;;;7.90;99.90;;;;;;5073842;28;20916;-68
2021/01/12 13:57:10;;;;;;;3.40;1.43;;;7.90;99.90;;;;;;5073581;28;20463;-68
2021/01/12 13:59:43;;;;;;;2.13;1.40;;;7.80;99.90;;;;;;5073611;28;20412;-68
2021/01/12 14:02:12;;;;;;;6.53;1.23;;;7.80;99.90;;;;;;5073852;28;20427;-68
2021/01/12 14:04:38;;;;;;;7.07;1.30;;;7.80;99.90;;;;;;5073508;28;20421;-68
2021/01/12 14:07:03;;;;;;;3.73;1.63;;;7.90;99.90;;;;;;5073647;28;20958;-68
2021/01/12 14:09:29;;;;;;;7.33;1.73;;;7.90;99.90;;;;;;5073660;28;20257;-67
2021/01/12 14:11:54;;;;;;;2.07;1.00;;;7.80;99.90;;;;;;5073684;28;20577;-68
2021/01/12 14:14:20;;;;;;;1.70;1.10;;;7.80;99.90;;;;;;5072740;28;20320;-68
2021/01/12 14:16:53;;;;;;;4.47;1.50;;;7.80;99.90;;;;;;5073669;28;20645;-68
2021/01/12 14:19:19;;;;;;;2.60;1.10;;;7.80;99.90;;;;;;5073617;28;20173;-68
2021/01/12 14:21:47;;;;;;;4.13;1.60;;;7.70;99.90;;;;;;5073289;28;20424;-68
2021/01/12 14:24:13;;;;;;;2.50;1.87;;;7.70;99.90;;;;;;5073171;28;20181;-68
2021/01/12 14:26:39;;;;;;;4.37;1.80;;;7.70;99.90;;;;;;5073402;28;20464;-68
2021/01/12 14:29:04;;;;;;;4.77;1.77;;;7.70;99.90;;;;;;5073450;28;20170;-68
2021/01/12 14:31:30;;;;;;;3.63;1.73;;;7.60;99.90;;;;;;5073018;28;20268;-68
2021/01/12 14:33:56;;;;;;;3.63;1.43;;;7.70;99.90;;;;;;5073419;28;20167;-68
2021/01/12 14:36:27;;;;;;;4.23;1.53;;;7.70;99.90;;;;;;5073437;28;20553;-68
2021/01/12 14:39:25;;;;;;;2.77;2.30;;;7.70;99.90;;;;;;5073698;28;20173;-68
2021/01/12 14:41:54;;;;;;;6.07;1.43;;;7.70;99.90;;;;;;5073456;28;20417;-68
2021/01/12 14:44:23;;;;;;;3.00;1.33;;;7.70;99.90;;;;;;5073378;28;20432;-68
2021/01/12 14:46:50;;;;;;;2.33;1.20;;;7.70;99.90;;;;;;5073288;28;20559;-68
2021/01/12 14:49:15;;;;;;;1.70;1.00;;;7.70;99.90;;;;;;5073404;28;20416;-68
2021/01/12 14:51:41;;;;;;;4.17;1.30;;;7.70;99.90;;;;;;5072903;28;20428;-68
2021/01/12 14:54:07;;;;;;;6.20;1.30;;;7.70;99.90;;;;;;5073055;28;20171;-68
2021/01/12 14:56:37;;;;;;;3.80;1.20;;;7.60;99.90;;;;;;5073360;28;20174;-68
2021/01/12 14:59:02;;;;;;;3.10;1.33;;;7.50;99.90;;;;;;5073217;28;20423;-67
2021/01/12 15:01:41;;;;;;;10.27;2.60;;;7.50;99.90;;;;;;5073264;28;20420;-68
2021/01/12 15:04:07;;;;;;;7.57;2.20;;;7.60;99.90;;;;;;5072938;28;20424;-68
2021/01/12 15:06:33;;;;;;;3.63;1.23;;;7.70;99.90;;;;;;5072906;28;21026;-68
2021/01/12 15:08:58;;;;;;;6.00;1.70;;;7.80;99.90;;;;;;5072999;28;20682;-71
2021/01/12 15:11:24;;;;;;;5.47;1.30;;;7.70;99.90;;;;;;5073115;28;20515;-68
2021/01/12 15:13:49;;;;;;;2.80;1.27;;;7.70;99.90;;;;;;5072730;28;20218;-67
2021/01/12 15:16:16;;;;;;;6.83;1.60;;;7.70;99.90;;;;;;5073018;28;20189;-67
2021/01/12 15:18:41;;;;;;;4.03;1.73;;;7.60;99.90;;;;;;5073069;28;20186;-67
2021/01/12 15:21:07;;;;;;;9.93;1.50;;;7.50;99.90;;;;;;5072907;28;20511;-67
2021/01/12 15:23:32;;;;;;;7.40;1.80;;;7.50;99.90;;;;;;5072856;28;20623;-67
2021/01/12 15:25:58;;;;;;;3.50;1.80;;;7.40;99.90;;;;;;5074081;28;20529;-67
2021/01/12 15:28:23;;;;;;;3.73;1.40;;;7.30;99.90;;;;;;5076570;28;20174;-67
2021/01/12 15:30:49;;;;;;;10.63;1.50;;;7.20;99.90;;;;;;5076291;28;20186;-69
2021/01/12 15:33:14;;;;;;;3.97;1.40;;;7.30;99.90;;;;;;5076405;28;20224;-70
2021/01/12 15:35:40;;;;;;;10.20;2.03;;;7.30;99.90;;;;;;5075845;28;20220;-69
2021/01/12 15:38:05;;;;;;;8.20;1.67;;;7.20;99.90;;;;;;5076210;28;20170;-69
2021/01/12 15:43:53;;;;;;;7.87;3.73;;;7.10;99.90;;;;;;5076119;28;20177;-69
2021/01/12 15:46:18;;;;;;;3.70;1.50;;;7.10;99.90;;;;;;5076645;28;20480;-70
2021/01/12 15:48:44;;;;;;;5.73;1.30;;;7.10;99.90;;;;;;5076207;28;20174;-69
2021/01/12 15:54:31;;;;;;;4.97;1.53;;;7.10;99.90;;;;;;5075812;28;20204;-69
2021/01/12 15:56:57;;;;;;;7.93;2.50;;;7.10;99.90;;;;;;5075790;28;20516;-69
2021/01/12 15:59:22;;;;;;;3.80;2.23;;;7.10;99.90;;;;;;5075708;28;20525;-69
2021/01/12 16:01:49;;;;;;;7.33;2.23;;;7.10;99.90;;;;;;5074469;28;20673;-70
2021/01/12 16:07:43;;;;;;;4.57;2.20;;;7.10;99.90;;;;;;5075946;28;20479;-70
2021/01/12 16:10:09;;;;;;;7.63;1.70;;;7.10;99.90;;;;;;5075772;28;20429;-69
2021/01/12 16:12:40;;;;;;;4.10;2.90;;;7.10;99.90;;;;;;5075259;28;20950;-72
2021/01/12 16:15:07;;;;;;;5.03;1.87;;;7.00;99.90;;;;;;5075415;28;20784;-72
2021/01/12 16:17:37;;;;;;;4.13;1.97;;;7.10;99.90;;;;;;5074412;28;20428;-71
2021/01/12 16:20:03;;;;;;;3.20;2.37;;;7.10;99.90;;;;;;5075653;28;20435;-71
2021/01/12 16:22:29;;;;;;;5.50;2.10;;;7.00;99.90;;;;;;5075229;28;20429;-72
2021/01/12 16:24:55;;;;;;;7.87;1.50;;;7.00;99.90;;;;;;5075482;28;20522;-72
2021/01/12 16:27:20;;;;;;;3.63;1.60;;;7.10;99.90;;;;;;5075543;28;20494;-72
2021/01/12 16:29:49;;;;;;;3.40;1.40;;;7.10;99.90;;;;;;5075228;28;20177;-70
2021/01/12 16:32:15;;;;;;;9.33;1.70;;;7.10;99.90;;;;;;5075482;28;20178;-70
2021/01/12 16:34:41;;;;;;;5.00;2.00;;;7.10;99.90;;;;;;5075156;28;20431;-70
2021/01/12 16:37:07;;;;;;;4.50;1.47;;;7.00;99.90;;;;;;5074908;28;20470;-69
2021/01/12 16:39:33;;;;;;;3.10;1.53;;;7.00;99.90;;;;;;5075362;28;20778;-69
2021/01/12 16:42:02;;;;;;;6.70;1.93;;;7.10;99.90;;;;;;5075307;28;20173;-69
2021/01/12 16:44:32;;;;;;;10.00;1.80;;;7.10;99.90;;;;;;5075143;28;20178;-68
2021/01/12 16:46:58;;;;;;;6.23;1.50;;;7.10;99.90;;;;;;5075081;28;20463;-68
2021/01/12 16:49:25;;;;;;;5.70;1.93;;;7.10;99.90;;;;;;5075136;28;20778;-68
2021/01/12 16:51:56;;;;;;;3.33;1.63;;;7.10;99.90;;;;;;5075133;28;20851;-68
2021/01/12 16:57:45;;;;;;;6.97;2.03;;;7.10;99.90;;;;;;5074577;28;20501;-71
2021/01/12 17:00:11;;;;;;;15.43;1.93;;;7.10;99.90;;;;;;5074611;28;20532;-69
2021/01/12 17:05:58;;;;;;;7.97;1.85;;;7.10;99.90;;;;;;5075837;28;20464;-68
2021/01/12 17:08:27;;;;;;;7.27;1.83;;;7.20;99.90;;;;;;5074501;28;20272;-68
2021/01/12 17:14:15;;;;;;;7.37;1.77;;;7.10;99.90;;;;;;5074036;28;20487;-68
2021/01/12 17:16:45;;;;;;;5.77;2.00;;;7.10;99.90;;;;;;5074295;28;20424;-68
2021/01/12 17:19:11;;;;;;;5.90;2.73;;;7.00;99.90;;;;;;5074384;28;20170;-68
2021/01/12 17:21:47;;;;;;;4.53;2.00;;;6.90;99.90;;;;;;5074295;28;20440;-70
2021/01/12 17:24:16;;;;;;;3.73;1.60;;;6.90;99.90;;;;;;5074407;28;20962;-69
2021/01/12 17:26:47;;;;;;;5.17;1.60;;;6.80;99.90;;;;;;5074095;28;20468;-69
2021/01/12 17:32:34;;;;;;;9.40;3.13;;;6.80;99.90;;;;;;5073525;28;20411;-68
2021/01/12 17:35:00;;;;;;;5.03;1.50;;;6.70;99.90;;;;;;5073440;28;20915;-72
2021/01/12 17:37:26;;;;;;;6.83;2.10;;;6.70;99.90;;;;;;5073941;28;20427;-68
2021/01/12 17:39:54;;;;;;;3.23;1.87;;;6.70;99.90;;;;;;5074837;28;20185;-70
2021/01/12 17:42:21;;;;;;;3.03;1.90;;;6.70;99.90;;;;;;5076155;28;20421;-68
2021/01/12 17:48:09;;;;;;;4.03;2.40;;;6.60;99.90;;;;;;5073496;28;20776;-68
2021/01/12 17:54:00;;;;;;;3.70;1.67;;;6.60;99.90;;;;;;5073291;28;20404;-68
2021/01/12 17:56:29;;;;;;;8.43;2.70;;;6.60;99.90;;;;;;5071922;28;20523;-68
2021/01/12 17:58:55;;;;;;;7.20;2.37;;;6.60;99.90;;;;;;5073167;28;20467;-69
2021/01/12 18:01:21;;;;;;;4.90;1.43;;;6.60;99.90;;;;;;5073373;28;20436;-67
2021/01/12 18:03:48;;;;;;;4.27;1.93;;;6.60;99.90;;;;;;5073316;28;20417;-68
2021/01/12 18:06:16;;;;;;;3.17;1.93;;;6.60;99.90;;;;;;5073339;28;20266;-68
2021/01/12 18:08:48;;;;;;;13.40;2.33;;;6.80;99.90;;;;;;5073096;28;20420;-68
2021/01/12 18:11:15;;;;;;;12.73;2.63;;;6.80;99.90;;;;;;5074008;28;20428;-68
2021/01/12 18:13:41;;;;;;;3.90;2.00;;;6.80;99.90;;;;;;5072963;28;20606;-69
2021/01/12 18:19:29;;;;;;;6.50;2.60;;;6.80;99.90;;;;;;5073150;28;20915;-70
2021/01/12 18:21:55;;;;;;;6.83;2.60;;;6.80;99.90;;;;;;5072904;28;20910;-68
2021/01/12 18:24:22;;;;;;;6.87;2.30;;;6.80;99.90;;;;;;5073205;28;20433;-69
2021/01/12 18:26:49;;;;;;;8.60;3.63;;;6.80;99.90;;;;;;5073181;28;20554;-67
2021/01/12 18:29:17;;;;;;;12.33;2.77;;;6.80;99.90;;;;;;5073395;28;20420;-68
2021/01/12 18:35:06;;;;;;;7.10;2.23;;;6.80;99.90;;;;;;5073038;28;20415;-72
2021/01/12 18:37:33;;;;;;;11.17;2.50;;;6.70;99.90;;;;;;5073264;28;20428;-74
2021/01/12 18:40:04;;;;;;;9.23;3.33;;;6.70;99.90;;;;;;5073082;28;20432;-72
2021/01/12 18:42:33;;;;;;;9.20;2.10;;;6.70;99.90;;;;;;5073354;28;20487;-72
2021/01/12 18:44:59;;;;;;;6.80;2.30;;;6.70;99.90;;;;;;5073064;28;20424;-68
2021/01/12 18:47:25;;;;;;;10.20;2.80;;;6.60;99.90;;;;;;5073340;28;20442;-68
2021/01/12 18:49:51;;;;;;;12.57;3.40;;;6.60;99.90;;;;;;5073212;28;20182;-68
2021/01/12 18:52:17;;;;;;;4.70;1.87;;;6.50;99.90;;;;;;5073183;28;20909;-69
2021/01/12 18:58:04;;;;;;;8.70;3.03;;;6.50;99.90;;;;;;5072587;28;20407;-67
2021/01/12 19:00:30;;;;;;;13.63;3.33;;;6.40;99.90;;;;;;5073772;28;20408;-66